sensor_id;sensor_type;location;lat;lon;timestamp;P1;durP1;ratioP1;P2;durP2;ratioP2
76566;SDS011;65428;53.194;6.132;2023-01-29T00:01:41;15.53;;;11.53;;
76566;SDS011;65428;53.194;6.132;2023-01-29T00:04:06;15.90;;;11.63;;
76566;SDS011;65428;53.194;6.132;2023-01-29T00:06:32;15.57;;;11.57;;
76566;SDS011;65428;53.194;6.132;2023-01-29T00:08:58;15.77;;;11.43;;
76566;SDS011;65428;53.194;6.132;2023-01-29T00:11:24;15.27;;;11.48;;
76566;SDS011;65428;53.194;6.132;2023-01-29T00:13:50;17.55;;;12.65;;
76566;SDS011;65428;53.194;6.132;2023-01-29T00:16:17;16.98;;;12.40;;
76566;SDS011;65428;53.194;6.132;2023-01-29T00:18:42;17.75;;;12.73;;
76566;SDS011;65428;53.194;6.132;2023-01-29T00:21:11;17.90;;;12.80;;
76566;SDS011;65428;53.194;6.132;2023-01-29T00:23:38;17.42;;;12.65;;
76566;SDS011;65428;53.194;6.132;2023-01-29T00:26:04;17.30;;;13.50;;
76566;SDS011;65428;53.194;6.132;2023-01-29T00:28:30;17.30;;;12.70;;
76566;SDS011;65428;53.194;6.132;2023-01-29T00:30:56;17.75;;;13.75;;
76566;SDS011;65428;53.194;6.132;2023-01-29T00:33:21;18.57;;;14.20;;
76566;SDS011;65428;53.194;6.132;2023-01-29T00:35:47;17.27;;;14.30;;
76566;SDS011;65428;53.194;6.132;2023-01-29T00:38:13;18.50;;;14.70;;
76566;SDS011;65428;53.194;6.132;2023-01-29T00:40:39;16.80;;;14.20;;
76566;SDS011;65428;53.194;6.132;2023-01-29T00:43:23;18.60;;;15.18;;
76566;SDS011;65428;53.194;6.132;2023-01-29T00:46:09;16.25;;;13.68;;
76566;SDS011;65428;53.194;6.132;2023-01-29T00:48:35;16.90;;;13.60;;
76566;SDS011;65428;53.194;6.132;2023-01-29T00:51:00;16.05;;;13.55;;
76566;SDS011;65428;53.194;6.132;2023-01-29T00:53:27;16.23;;;12.55;;
76566;SDS011;65428;53.194;6.132;2023-01-29T00:55:53;13.52;;;10.82;;
76566;SDS011;65428;53.194;6.132;2023-01-29T00:58:18;12.53;;;10.83;;
76566;SDS011;65428;53.194;6.132;2023-01-29T01:00:58;12.73;;;11.10;;
76566;SDS011;65428;53.194;6.132;2023-01-29T01:03:27;15.70;;;10.87;;
76566;SDS011;65428;53.194;6.132;2023-01-29T01:06:06;14.80;;;11.05;;
76566;SDS011;65428;53.194;6.132;2023-01-29T01:08:33;11.63;;;9.95;;
76566;SDS011;65428;53.194;6.132;2023-01-29T01:11:18;10.82;;;9.27;;
76566;SDS011;65428;53.194;6.132;2023-01-29T01:13:44;11.32;;;9.00;;
76566;SDS011;65428;53.194;6.132;2023-01-29T01:16:11;11.67;;;9.80;;
76566;SDS011;65428;53.194;6.132;2023-01-29T01:18:37;11.18;;;9.02;;
76566;SDS011;65428;53.194;6.132;2023-01-29T01:21:04;10.82;;;9.13;;
76566;SDS011;65428;53.194;6.132;2023-01-29T01:23:30;10.38;;;9.10;;
76566;SDS011;65428;53.194;6.132;2023-01-29T01:25:56;10.63;;;9.48;;
76566;SDS011;65428;53.194;6.132;2023-01-29T01:28:22;12.10;;;10.05;;
76566;SDS011;65428;53.194;6.132;2023-01-29T01:30:47;12.87;;;10.23;;
76566;SDS011;65428;53.194;6.132;2023-01-29T01:33:13;12.10;;;10.20;;
76566;SDS011;65428;53.194;6.132;2023-01-29T01:35:38;17.73;;;11.38;;
76566;SDS011;65428;53.194;6.132;2023-01-29T01:38:05;13.43;;;10.98;;
76566;SDS011;65428;53.194;6.132;2023-01-29T01:40:30;13.60;;;11.32;;
76566;SDS011;65428;53.194;6.132;2023-01-29T01:42:57;14.07;;;11.63;;
76566;SDS011;65428;53.194;6.132;2023-01-29T01:47:58;14.10;;;12.30;;
76566;SDS011;65428;53.194;6.132;2023-01-29T01:53:11;18.38;;;13.98;;
76566;SDS011;65428;53.194;6.132;2023-01-29T01:55:52;17.48;;;15.18;;
76566;SDS011;65428;53.194;6.132;2023-01-29T01:58:31;17.88;;;14.77;;
76566;SDS011;65428;53.194;6.132;2023-01-29T02:00:59;16.95;;;14.82;;
76566;SDS011;65428;53.194;6.132;2023-01-29T02:03:27;17.67;;;15.52;;
76566;SDS011;65428;53.194;6.132;2023-01-29T02:06:18;19.17;;;16.35;;
76566;SDS011;65428;53.194;6.132;2023-01-29T02:09:07;19.58;;;16.63;;
76566;SDS011;65428;53.194;6.132;2023-01-29T02:11:58;19.30;;;16.98;;
76566;SDS011;65428;53.194;6.132;2023-01-29T02:14:25;21.77;;;16.98;;
76566;SDS011;65428;53.194;6.132;2023-01-29T02:16:50;18.85;;;16.83;;
76566;SDS011;65428;53.194;6.132;2023-01-29T02:28:30;22.13;;;18.23;;
76566;SDS011;65428;53.194;6.132;2023-01-29T02:37:21;23.77;;;19.27;;
76566;SDS011;65428;53.194;6.132;2023-01-29T02:42:40;24.47;;;19.63;;
76566;SDS011;65428;53.194;6.132;2023-01-29T02:45:14;27.13;;;22.45;;
76566;SDS011;65428;53.194;6.132;2023-01-29T02:47:47;28.80;;;23.77;;
76566;SDS011;65428;53.194;6.132;2023-01-29T02:53:15;32.60;;;26.35;;
76566;SDS011;65428;53.194;6.132;2023-01-29T02:55:50;32.67;;;26.95;;
76566;SDS011;65428;53.194;6.132;2023-01-29T02:58:38;34.78;;;28.50;;
76566;SDS011;65428;53.194;6.132;2023-01-29T03:01:10;34.40;;;28.75;;
76566;SDS011;65428;53.194;6.132;2023-01-29T03:03:55;36.88;;;29.77;;
76566;SDS011;65428;53.194;6.132;2023-01-29T03:06:28;35.88;;;28.65;;
76566;SDS011;65428;53.194;6.132;2023-01-29T03:09:08;36.78;;;30.00;;
76566;SDS011;65428;53.194;6.132;2023-01-29T03:11:39;35.92;;;29.25;;
76566;SDS011;65428;53.194;6.132;2023-01-29T03:14:19;30.70;;;26.05;;
76566;SDS011;65428;53.194;6.132;2023-01-29T03:16:50;30.77;;;25.73;;
76566;SDS011;65428;53.194;6.132;2023-01-29T03:19:32;32.10;;;25.17;;
76566;SDS011;65428;53.194;6.132;2023-01-29T03:22:06;28.47;;;25.00;;
76566;SDS011;65428;53.194;6.132;2023-01-29T03:24:45;29.70;;;25.40;;
76566;SDS011;65428;53.194;6.132;2023-01-29T03:27:40;29.17;;;24.63;;
76566;SDS011;65428;53.194;6.132;2023-01-29T03:30:28;27.40;;;23.67;;
76566;SDS011;65428;53.194;6.132;2023-01-29T03:33:15;29.70;;;24.23;;
76566;SDS011;65428;53.194;6.132;2023-01-29T03:36:07;27.77;;;23.50;;
76566;SDS011;65428;53.194;6.132;2023-01-29T03:38:32;25.50;;;22.27;;
76566;SDS011;65428;53.194;6.132;2023-01-29T03:41:01;25.87;;;22.70;;
76566;SDS011;65428;53.194;6.132;2023-01-29T03:46:37;26.80;;;23.30;;
76566;SDS011;65428;53.194;6.132;2023-01-29T03:49:36;25.52;;;22.45;;
76566;SDS011;65428;53.194;6.132;2023-01-29T03:52:25;28.38;;;24.20;;
76566;SDS011;65428;53.194;6.132;2023-01-29T03:55:23;27.95;;;24.00;;
76566;SDS011;65428;53.194;6.132;2023-01-29T03:58:19;26.08;;;23.38;;
76566;SDS011;65428;53.194;6.132;2023-01-29T04:00:55;28.03;;;23.83;;
76566;SDS011;65428;53.194;6.132;2023-01-29T04:03:28;27.60;;;24.55;;
76566;SDS011;65428;53.194;6.132;2023-01-29T04:11:46;30.38;;;25.85;;
76566;SDS011;65428;53.194;6.132;2023-01-29T04:14:16;31.80;;;26.05;;
76566;SDS011;65428;53.194;6.132;2023-01-29T04:16:50;26.98;;;24.02;;
76566;SDS011;65428;53.194;6.132;2023-01-29T04:19:19;27.33;;;24.25;;
76566;SDS011;65428;53.194;6.132;2023-01-29T04:21:45;26.88;;;23.98;;
76566;SDS011;65428;53.194;6.132;2023-01-29T04:24:14;26.05;;;23.02;;
76566;SDS011;65428;53.194;6.132;2023-01-29T04:26:45;28.63;;;24.80;;
76566;SDS011;65428;53.194;6.132;2023-01-29T04:29:34;26.60;;;23.70;;
76566;SDS011;65428;53.194;6.132;2023-01-29T04:35:21;25.13;;;22.23;;
76566;SDS011;65428;53.194;6.132;2023-01-29T04:40:35;25.60;;;22.10;;
76566;SDS011;65428;53.194;6.132;2023-01-29T04:43:19;24.52;;;21.88;;
76566;SDS011;65428;53.194;6.132;2023-01-29T04:48:41;23.63;;;20.85;;
76566;SDS011;65428;53.194;6.132;2023-01-29T04:51:16;23.10;;;20.35;;
76566;SDS011;65428;53.194;6.132;2023-01-29T04:53:56;23.92;;;21.23;;
76566;SDS011;65428;53.194;6.132;2023-01-29T04:59:04;24.88;;;22.23;;
76566;SDS011;65428;53.194;6.132;2023-01-29T05:01:33;24.77;;;22.00;;
76566;SDS011;65428;53.194;6.132;2023-01-29T05:04:01;23.23;;;20.83;;
76566;SDS011;65428;53.194;6.132;2023-01-29T05:06:31;23.70;;;21.20;;
76566;SDS011;65428;53.194;6.132;2023-01-29T05:08:57;23.90;;;21.27;;
76566;SDS011;65428;53.194;6.132;2023-01-29T05:11:24;23.42;;;21.02;;
76566;SDS011;65428;53.194;6.132;2023-01-29T05:13:50;23.67;;;21.08;;
76566;SDS011;65428;53.194;6.132;2023-01-29T05:16:26;22.30;;;19.90;;
76566;SDS011;65428;53.194;6.132;2023-01-29T05:19:09;22.38;;;19.98;;
76566;SDS011;65428;53.194;6.132;2023-01-29T05:21:37;23.47;;;21.07;;
76566;SDS011;65428;53.194;6.132;2023-01-29T05:24:05;23.42;;;21.02;;
76566;SDS011;65428;53.194;6.132;2023-01-29T05:26:42;22.73;;;20.35;;
76566;SDS011;65428;53.194;6.132;2023-01-29T05:29:28;22.80;;;20.55;;
76566;SDS011;65428;53.194;6.132;2023-01-29T05:31:54;22.58;;;20.20;;
76566;SDS011;65428;53.194;6.132;2023-01-29T05:34:19;23.58;;;21.08;;
76566;SDS011;65428;53.194;6.132;2023-01-29T05:36:45;23.45;;;20.90;;
76566;SDS011;65428;53.194;6.132;2023-01-29T05:39:11;22.80;;;20.40;;
76566;SDS011;65428;53.194;6.132;2023-01-29T05:41:36;22.70;;;20.40;;
76566;SDS011;65428;53.194;6.132;2023-01-29T05:44:02;22.52;;;20.33;;
76566;SDS011;65428;53.194;6.132;2023-01-29T05:46:28;21.92;;;19.63;;
76566;SDS011;65428;53.194;6.132;2023-01-29T05:48:54;21.17;;;18.97;;
76566;SDS011;65428;53.194;6.132;2023-01-29T05:51:19;21.00;;;18.90;;
76566;SDS011;65428;53.194;6.132;2023-01-29T05:53:45;18.83;;;16.88;;
76566;SDS011;65428;53.194;6.132;2023-01-29T05:56:10;20.77;;;18.67;;
76566;SDS011;65428;53.194;6.132;2023-01-29T05:58:36;19.90;;;17.77;;
76566;SDS011;65428;53.194;6.132;2023-01-29T06:01:09;21.47;;;19.17;;
76566;SDS011;65428;53.194;6.132;2023-01-29T06:03:36;22.10;;;19.77;;
76566;SDS011;65428;53.194;6.132;2023-01-29T06:06:02;21.70;;;19.07;;
76566;SDS011;65428;53.194;6.132;2023-01-29T06:08:27;21.95;;;19.67;;
76566;SDS011;65428;53.194;6.132;2023-01-29T06:10:53;25.23;;;21.63;;
76566;SDS011;65428;53.194;6.132;2023-01-29T06:13:19;23.63;;;21.17;;
76566;SDS011;65428;53.194;6.132;2023-01-29T06:15:44;24.97;;;21.53;;
76566;SDS011;65428;53.194;6.132;2023-01-29T06:18:10;24.50;;;21.80;;
76566;SDS011;65428;53.194;6.132;2023-01-29T06:20:36;26.47;;;22.73;;
76566;SDS011;65428;53.194;6.132;2023-01-29T06:23:02;25.85;;;22.95;;
76566;SDS011;65428;53.194;6.132;2023-01-29T06:25:27;29.57;;;25.70;;
76566;SDS011;65428;53.194;6.132;2023-01-29T06:27:53;31.80;;;26.87;;
76566;SDS011;65428;53.194;6.132;2023-01-29T06:30:18;31.85;;;27.40;;
76566;SDS011;65428;53.194;6.132;2023-01-29T06:32:44;37.08;;;30.75;;
76566;SDS011;65428;53.194;6.132;2023-01-29T06:35:10;33.40;;;29.80;;
76566;SDS011;65428;53.194;6.132;2023-01-29T06:37:35;33.60;;;29.90;;
76566;SDS011;65428;53.194;6.132;2023-01-29T06:40:01;35.80;;;30.08;;
76566;SDS011;65428;53.194;6.132;2023-01-29T06:42:28;34.55;;;28.30;;
76566;SDS011;65428;53.194;6.132;2023-01-29T06:44:54;35.43;;;29.53;;
76566;SDS011;65428;53.194;6.132;2023-01-29T06:47:20;35.17;;;30.42;;
76566;SDS011;65428;53.194;6.132;2023-01-29T06:49:45;37.53;;;30.80;;
76566;SDS011;65428;53.194;6.132;2023-01-29T06:52:11;36.28;;;31.13;;
76566;SDS011;65428;53.194;6.132;2023-01-29T06:54:37;37.28;;;32.17;;
76566;SDS011;65428;53.194;6.132;2023-01-29T06:57:03;39.13;;;33.47;;
76566;SDS011;65428;53.194;6.132;2023-01-29T06:59:28;41.93;;;34.10;;
76566;SDS011;65428;53.194;6.132;2023-01-29T07:01:54;41.53;;;34.95;;
76566;SDS011;65428;53.194;6.132;2023-01-29T07:04:20;39.03;;;34.17;;
76566;SDS011;65428;53.194;6.132;2023-01-29T07:06:45;40.10;;;35.13;;
76566;SDS011;65428;53.194;6.132;2023-01-29T07:09:11;44.03;;;36.97;;
76566;SDS011;65428;53.194;6.132;2023-01-29T07:11:38;43.22;;;35.70;;
76566;SDS011;65428;53.194;6.132;2023-01-29T07:14:04;45.17;;;38.42;;
76566;SDS011;65428;53.194;6.132;2023-01-29T07:16:30;47.92;;;39.30;;
76566;SDS011;65428;53.194;6.132;2023-01-29T07:18:56;45.63;;;39.17;;
76566;SDS011;65428;53.194;6.132;2023-01-29T07:21:21;45.53;;;36.60;;
76566;SDS011;65428;53.194;6.132;2023-01-29T07:23:47;44.72;;;37.72;;
76566;SDS011;65428;53.194;6.132;2023-01-29T07:26:13;44.35;;;36.42;;
76566;SDS011;65428;53.194;6.132;2023-01-29T07:28:39;41.97;;;35.60;;
76566;SDS011;65428;53.194;6.132;2023-01-29T07:31:06;44.13;;;35.83;;
76566;SDS011;65428;53.194;6.132;2023-01-29T07:33:36;44.45;;;37.42;;
76566;SDS011;65428;53.194;6.132;2023-01-29T07:36:01;41.43;;;34.97;;
76566;SDS011;65428;53.194;6.132;2023-01-29T07:38:32;44.75;;;36.88;;
76566;SDS011;65428;53.194;6.132;2023-01-29T07:40:57;42.58;;;36.60;;
76566;SDS011;65428;53.194;6.132;2023-01-29T07:43:23;44.17;;;37.17;;
76566;SDS011;65428;53.194;6.132;2023-01-29T07:45:49;44.77;;;36.80;;
76566;SDS011;65428;53.194;6.132;2023-01-29T07:48:14;42.50;;;37.90;;
76566;SDS011;65428;53.194;6.132;2023-01-29T07:50:40;48.73;;;38.80;;
76566;SDS011;65428;53.194;6.132;2023-01-29T07:53:09;48.00;;;40.10;;
76566;SDS011;65428;53.194;6.132;2023-01-29T07:55:39;51.60;;;42.25;;
76566;SDS011;65428;53.194;6.132;2023-01-29T07:58:07;55.25;;;44.17;;
76566;SDS011;65428;53.194;6.132;2023-01-29T08:00:33;58.40;;;45.57;;
76566;SDS011;65428;53.194;6.132;2023-01-29T08:03:03;61.63;;;46.50;;
76566;SDS011;65428;53.194;6.132;2023-01-29T08:05:29;58.08;;;45.53;;
76566;SDS011;65428;53.194;6.132;2023-01-29T08:07:55;64.57;;;47.00;;
76566;SDS011;65428;53.194;6.132;2023-01-29T08:10:21;67.68;;;49.95;;
76566;SDS011;65428;53.194;6.132;2023-01-29T08:12:46;70.40;;;50.30;;
76566;SDS011;65428;53.194;6.132;2023-01-29T08:15:17;66.00;;;48.72;;
76566;SDS011;65428;53.194;6.132;2023-01-29T08:17:42;67.40;;;51.53;;
76566;SDS011;65428;53.194;6.132;2023-01-29T08:20:08;66.53;;;50.03;;
76566;SDS011;65428;53.194;6.132;2023-01-29T08:22:34;65.35;;;47.60;;
76566;SDS011;65428;53.194;6.132;2023-01-29T08:25:00;64.00;;;46.83;;
76566;SDS011;65428;53.194;6.132;2023-01-29T08:27:26;69.17;;;49.37;;
76566;SDS011;65428;53.194;6.132;2023-01-29T08:29:51;70.88;;;50.90;;
76566;SDS011;65428;53.194;6.132;2023-01-29T08:32:17;69.15;;;50.08;;
76566;SDS011;65428;53.194;6.132;2023-01-29T08:34:42;66.73;;;49.93;;
76566;SDS011;65428;53.194;6.132;2023-01-29T08:37:08;67.07;;;48.90;;
76566;SDS011;65428;53.194;6.132;2023-01-29T08:39:34;64.85;;;49.15;;
76566;SDS011;65428;53.194;6.132;2023-01-29T08:41:59;64.53;;;47.83;;
76566;SDS011;65428;53.194;6.132;2023-01-29T08:44:28;65.25;;;48.15;;
76566;SDS011;65428;53.194;6.132;2023-01-29T08:46:53;61.72;;;46.25;;
76566;SDS011;65428;53.194;6.132;2023-01-29T08:49:19;64.57;;;46.88;;
76566;SDS011;65428;53.194;6.132;2023-01-29T08:51:45;64.83;;;45.93;;
76566;SDS011;65428;53.194;6.132;2023-01-29T08:54:10;60.83;;;45.37;;
76566;SDS011;65428;53.194;6.132;2023-01-29T08:56:36;65.47;;;46.72;;
76566;SDS011;65428;53.194;6.132;2023-01-29T08:59:02;59.97;;;45.88;;
76566;SDS011;65428;53.194;6.132;2023-01-29T09:01:27;63.90;;;48.00;;
76566;SDS011;65428;53.194;6.132;2023-01-29T09:03:53;56.63;;;42.77;;
76566;SDS011;65428;53.194;6.132;2023-01-29T09:06:18;58.88;;;44.55;;
76566;SDS011;65428;53.194;6.132;2023-01-29T09:08:44;53.25;;;41.50;;
76566;SDS011;65428;53.194;6.132;2023-01-29T09:11:10;55.70;;;44.13;;
76566;SDS011;65428;53.194;6.132;2023-01-29T09:13:35;60.38;;;45.95;;
76566;SDS011;65428;53.194;6.132;2023-01-29T09:16:01;54.20;;;41.53;;
76566;SDS011;65428;53.194;6.132;2023-01-29T09:18:28;53.00;;;41.28;;
76566;SDS011;65428;53.194;6.132;2023-01-29T09:20:55;51.85;;;40.47;;
76566;SDS011;65428;53.194;6.132;2023-01-29T09:23:21;46.38;;;37.03;;
76566;SDS011;65428;53.194;6.132;2023-01-29T09:25:47;51.40;;;40.23;;
76566;SDS011;65428;53.194;6.132;2023-01-29T09:28:13;51.93;;;42.07;;
76566;SDS011;65428;53.194;6.132;2023-01-29T09:30:41;51.03;;;38.60;;
76566;SDS011;65428;53.194;6.132;2023-01-29T09:33:07;57.13;;;44.40;;
76566;SDS011;65428;53.194;6.132;2023-01-29T09:35:33;52.63;;;40.77;;
76566;SDS011;65428;53.194;6.132;2023-01-29T09:37:59;53.83;;;42.43;;
76566;SDS011;65428;53.194;6.132;2023-01-29T09:40:26;51.10;;;41.05;;
76566;SDS011;65428;53.194;6.132;2023-01-29T09:43:03;56.97;;;43.65;;
76566;SDS011;65428;53.194;6.132;2023-01-29T09:45:51;54.55;;;41.60;;
76566;SDS011;65428;53.194;6.132;2023-01-29T09:48:20;60.45;;;44.30;;
76566;SDS011;65428;53.194;6.132;2023-01-29T09:50:50;56.55;;;42.85;;
76566;SDS011;65428;53.194;6.132;2023-01-29T09:53:29;60.03;;;44.22;;
76566;SDS011;65428;53.194;6.132;2023-01-29T09:56:18;62.55;;;44.97;;
76566;SDS011;65428;53.194;6.132;2023-01-29T09:58:45;64.70;;;46.33;;
76566;SDS011;65428;53.194;6.132;2023-01-29T10:07:02;58.65;;;43.88;;
76566;SDS011;65428;53.194;6.132;2023-01-29T10:09:50;67.15;;;46.13;;
76566;SDS011;65428;53.194;6.132;2023-01-29T10:12:31;59.10;;;44.28;;
76566;SDS011;65428;53.194;6.132;2023-01-29T10:20:58;60.57;;;45.53;;
76566;SDS011;65428;53.194;6.132;2023-01-29T10:23:40;66.43;;;47.65;;
76566;SDS011;65428;53.194;6.132;2023-01-29T10:26:11;64.50;;;45.08;;
76566;SDS011;65428;53.194;6.132;2023-01-29T10:28:44;64.93;;;46.90;;
76566;SDS011;65428;53.194;6.132;2023-01-29T10:31:16;65.22;;;46.35;;
76566;SDS011;65428;53.194;6.132;2023-01-29T10:33:51;60.67;;;45.83;;
76566;SDS011;65428;53.194;6.132;2023-01-29T10:36:27;62.55;;;45.08;;
76566;SDS011;65428;53.194;6.132;2023-01-29T10:39:10;58.70;;;43.60;;
76566;SDS011;65428;53.194;6.132;2023-01-29T10:58:42;57.13;;;39.42;;
76566;SDS011;65428;53.194;6.132;2023-01-29T11:01:12;57.42;;;39.25;;
76566;SDS011;65428;53.194;6.132;2023-01-29T11:03:38;63.70;;;42.50;;
76566;SDS011;65428;53.194;6.132;2023-01-29T11:11:51;55.38;;;36.60;;
76566;SDS011;65428;53.194;6.132;2023-01-29T11:14:26;50.80;;;34.45;;
76566;SDS011;65428;53.194;6.132;2023-01-29T11:16:55;65.60;;;39.03;;
76566;SDS011;65428;53.194;6.132;2023-01-29T11:19:37;56.10;;;35.77;;
76566;SDS011;65428;53.194;6.132;2023-01-29T11:22:10;49.22;;;31.98;;
76566;SDS011;65428;53.194;6.132;2023-01-29T11:24:40;48.17;;;32.40;;
76566;SDS011;65428;53.194;6.132;2023-01-29T11:27:22;53.42;;;34.67;;
76566;SDS011;65428;53.194;6.132;2023-01-29T11:29:53;51.13;;;33.50;;
76566;SDS011;65428;53.194;6.132;2023-01-29T11:37:31;51.83;;;33.38;;
76566;SDS011;65428;53.194;6.132;2023-01-29T11:42:48;50.13;;;35.30;;
76566;SDS011;65428;53.194;6.132;2023-01-29T11:45:27;53.53;;;36.92;;
76566;SDS011;65428;53.194;6.132;2023-01-29T11:47:56;51.47;;;36.38;;
76566;SDS011;65428;53.194;6.132;2023-01-29T11:50:29;51.37;;;35.83;;
76566;SDS011;65428;53.194;6.132;2023-01-29T11:53:00;50.55;;;35.80;;
76566;SDS011;65428;53.194;6.132;2023-01-29T11:55:29;47.05;;;33.42;;
76566;SDS011;65428;53.194;6.132;2023-01-29T11:58:10;46.38;;;33.45;;
76566;SDS011;65428;53.194;6.132;2023-01-29T12:00:41;46.85;;;33.53;;
76566;SDS011;65428;53.194;6.132;2023-01-29T12:03:20;45.15;;;32.63;;
76566;SDS011;65428;53.194;6.132;2023-01-29T12:05:53;42.88;;;31.98;;
76566;SDS011;65428;53.194;6.132;2023-01-29T12:08:21;40.85;;;30.80;;
76566;SDS011;65428;53.194;6.132;2023-01-29T12:10:47;40.05;;;28.73;;
76566;SDS011;65428;53.194;6.132;2023-01-29T12:15:44;33.08;;;25.58;;
76566;SDS011;65428;53.194;6.132;2023-01-29T12:21:42;35.60;;;26.70;;
76566;SDS011;65428;53.194;6.132;2023-01-29T12:23:56;39.03;;;28.73;;
76566;SDS011;65428;53.194;6.132;2023-01-29T12:26:43;42.20;;;31.30;;
76566;SDS011;65428;53.194;6.132;2023-01-29T12:34:36;34.75;;;25.70;;
76566;SDS011;65428;53.194;6.132;2023-01-29T12:37:17;35.20;;;26.17;;
76566;SDS011;65428;53.194;6.132;2023-01-29T12:39:48;36.50;;;27.42;;
76566;SDS011;65428;53.194;6.132;2023-01-29T12:42:17;37.58;;;27.67;;
76566;SDS011;65428;53.194;6.132;2023-01-29T12:44:51;38.97;;;27.52;;
76566;SDS011;65428;53.194;6.132;2023-01-29T12:49:52;43.67;;;31.30;;
76566;SDS011;65428;53.194;6.132;2023-01-29T12:52:33;42.60;;;30.92;;
76566;SDS011;65428;53.194;6.132;2023-01-29T12:55:06;55.00;;;35.45;;
76566;SDS011;65428;53.194;6.132;2023-01-29T12:57:43;48.72;;;34.13;;
76566;SDS011;65428;53.194;6.132;2023-01-29T13:00:27;55.45;;;37.33;;
76566;SDS011;65428;53.194;6.132;2023-01-29T13:03:07;55.42;;;38.60;;
76566;SDS011;65428;53.194;6.132;2023-01-29T13:05:55;47.72;;;34.60;;
76566;SDS011;65428;53.194;6.132;2023-01-29T13:11:02;57.08;;;38.67;;
76566;SDS011;65428;53.194;6.132;2023-01-29T13:16:09;47.20;;;34.10;;
76566;SDS011;65428;53.194;6.132;2023-01-29T13:18:39;46.35;;;32.47;;
76566;SDS011;65428;53.194;6.132;2023-01-29T13:21:13;46.50;;;30.93;;
76566;SDS011;65428;53.194;6.132;2023-01-29T13:23:42;43.92;;;29.60;;
76566;SDS011;65428;53.194;6.132;2023-01-29T13:26:11;45.55;;;29.35;;
76566;SDS011;65428;53.194;6.132;2023-01-29T13:28:37;38.33;;;26.87;;
76566;SDS011;65428;53.194;6.132;2023-01-29T13:31:10;45.30;;;29.35;;
76566;SDS011;65428;53.194;6.132;2023-01-29T13:36:43;51.70;;;30.83;;
76566;SDS011;65428;53.194;6.132;2023-01-29T13:39:54;52.05;;;32.38;;
76566;SDS011;65428;53.194;6.132;2023-01-29T13:42:18;45.20;;;30.45;;
76566;SDS011;65428;53.194;6.132;2023-01-29T13:44:53;51.77;;;32.30;;
76566;SDS011;65428;53.194;6.132;2023-01-29T13:47:27;50.13;;;32.25;;
76566;SDS011;65428;53.194;6.132;2023-01-29T13:50:04;53.40;;;34.45;;
76566;SDS011;65428;53.194;6.132;2023-01-29T13:52:52;53.28;;;34.30;;
76566;SDS011;65428;53.194;6.132;2023-01-29T13:55:36;50.38;;;33.67;;
76566;SDS011;65428;53.194;6.132;2023-01-29T13:58:04;56.47;;;34.97;;
76566;SDS011;65428;53.194;6.132;2023-01-29T14:07:53;56.88;;;37.08;;
76566;SDS011;65428;53.194;6.132;2023-01-29T14:10:20;51.17;;;34.75;;
76566;SDS011;65428;53.194;6.132;2023-01-29T14:12:49;54.53;;;35.65;;
76566;SDS011;65428;53.194;6.132;2023-01-29T14:15:19;64.28;;;39.75;;
76566;SDS011;65428;53.194;6.132;2023-01-29T14:20:32;64.30;;;41.00;;
76566;SDS011;65428;53.194;6.132;2023-01-29T14:22:58;65.63;;;41.80;;
76566;SDS011;65428;53.194;6.132;2023-01-29T14:25:30;68.10;;;42.83;;
76566;SDS011;65428;53.194;6.132;2023-01-29T14:27:58;73.82;;;44.60;;
76566;SDS011;65428;53.194;6.132;2023-01-29T14:30:30;72.28;;;43.53;;
76566;SDS011;65428;53.194;6.132;2023-01-29T14:32:58;62.72;;;40.30;;
76566;SDS011;65428;53.194;6.132;2023-01-29T14:35:26;66.63;;;41.67;;
76566;SDS011;65428;53.194;6.132;2023-01-29T14:37:58;60.63;;;41.13;;
76566;SDS011;65428;53.194;6.132;2023-01-29T14:40:26;67.25;;;42.15;;
76566;SDS011;65428;53.194;6.132;2023-01-29T14:43:06;61.75;;;40.90;;
76566;SDS011;65428;53.194;6.132;2023-01-29T14:45:43;58.97;;;39.30;;
76566;SDS011;65428;53.194;6.132;2023-01-29T14:55:59;63.72;;;40.17;;
76566;SDS011;65428;53.194;6.132;2023-01-29T14:58:48;59.95;;;39.67;;
76566;SDS011;65428;53.194;6.132;2023-01-29T15:01:18;66.28;;;41.67;;
76566;SDS011;65428;53.194;6.132;2023-01-29T15:03:45;67.63;;;42.20;;
76566;SDS011;65428;53.194;6.132;2023-01-29T15:06:28;73.22;;;44.33;;
76566;SDS011;65428;53.194;6.132;2023-01-29T15:09:03;81.20;;;48.03;;
76566;SDS011;65428;53.194;6.132;2023-01-29T15:11:59;74.18;;;45.67;;
76566;SDS011;65428;53.194;6.132;2023-01-29T15:14:45;73.43;;;45.40;;
76566;SDS011;65428;53.194;6.132;2023-01-29T15:17:35;78.10;;;47.08;;
76566;SDS011;65428;53.194;6.132;2023-01-29T15:20:34;74.97;;;44.77;;
76566;SDS011;65428;53.194;6.132;2023-01-29T15:23:01;80.00;;;46.65;;
76566;SDS011;65428;53.194;6.132;2023-01-29T15:25:46;75.72;;;45.67;;
76566;SDS011;65428;53.194;6.132;2023-01-29T15:28:14;74.38;;;45.97;;
76566;SDS011;65428;53.194;6.132;2023-01-29T15:30:40;76.93;;;47.47;;
76566;SDS011;65428;53.194;6.132;2023-01-29T15:33:07;86.88;;;51.28;;
76566;SDS011;65428;53.194;6.132;2023-01-29T15:35:36;84.63;;;49.35;;
76566;SDS011;65428;53.194;6.132;2023-01-29T15:38:17;80.68;;;48.95;;
76566;SDS011;65428;53.194;6.132;2023-01-29T15:40:53;78.30;;;46.60;;
76566;SDS011;65428;53.194;6.132;2023-01-29T15:43:43;88.32;;;51.22;;
76566;SDS011;65428;53.194;6.132;2023-01-29T15:46:25;79.55;;;47.10;;
76566;SDS011;65428;53.194;6.132;2023-01-29T15:48:54;75.90;;;46.73;;
76566;SDS011;65428;53.194;6.132;2023-01-29T15:51:21;87.27;;;49.60;;
76566;SDS011;65428;53.194;6.132;2023-01-29T15:54:32;74.35;;;45.60;;
76566;SDS011;65428;53.194;6.132;2023-01-29T15:56:40;85.22;;;49.45;;
76566;SDS011;65428;53.194;6.132;2023-01-29T15:59:14;78.80;;;46.00;;
76566;SDS011;65428;53.194;6.132;2023-01-29T16:01:45;85.45;;;48.58;;
76566;SDS011;65428;53.194;6.132;2023-01-29T16:04:12;83.97;;;47.87;;
76566;SDS011;65428;53.194;6.132;2023-01-29T16:06:44;82.22;;;46.90;;
76566;SDS011;65428;53.194;6.132;2023-01-29T16:09:15;86.87;;;48.00;;
76566;SDS011;65428;53.194;6.132;2023-01-29T16:11:43;86.18;;;47.05;;
76566;SDS011;65428;53.194;6.132;2023-01-29T16:14:13;86.25;;;46.95;;
76566;SDS011;65428;53.194;6.132;2023-01-29T16:16:43;82.28;;;45.42;;
76566;SDS011;65428;53.194;6.132;2023-01-29T16:19:19;82.38;;;44.58;;
76566;SDS011;65428;53.194;6.132;2023-01-29T16:21:49;84.43;;;45.65;;
76566;SDS011;65428;53.194;6.132;2023-01-29T16:24:24;79.82;;;43.65;;
76566;SDS011;65428;53.194;6.132;2023-01-29T16:26:51;76.72;;;43.53;;
76566;SDS011;65428;53.194;6.132;2023-01-29T16:29:31;69.57;;;40.88;;
76566;SDS011;65428;53.194;6.132;2023-01-29T16:31:59;74.97;;;41.78;;
76566;SDS011;65428;53.194;6.132;2023-01-29T16:34:30;75.00;;;42.42;;
76566;SDS011;65428;53.194;6.132;2023-01-29T16:37:00;72.47;;;41.47;;
76566;SDS011;65428;53.194;6.132;2023-01-29T16:39:36;75.20;;;42.53;;
76566;SDS011;65428;53.194;6.132;2023-01-29T16:44:51;73.70;;;42.00;;
76566;SDS011;65428;53.194;6.132;2023-01-29T16:53:21;69.35;;;40.72;;
76566;SDS011;65428;53.194;6.132;2023-01-29T16:55:40;63.55;;;37.60;;
76566;SDS011;65428;53.194;6.132;2023-01-29T16:58:16;62.95;;;39.00;;
76566;SDS011;65428;53.194;6.132;2023-01-29T17:00:45;70.15;;;41.00;;
76566;SDS011;65428;53.194;6.132;2023-01-29T17:03:16;64.13;;;38.83;;